createdAt,value
2018-12-21T00:00:05.018Z,4.73
2018-12-21T00:02:34.136Z,4.79
2018-12-21T00:05:03.429Z,4.88
2018-12-21T00:07:32.611Z,4.83
2018-12-21T00:10:02.177Z,4.92
2018-12-21T00:12:31.498Z,4.99
2018-12-21T00:15:00.583Z,4.90
2018-12-21T00:17:34.596Z,5.01
2018-12-21T00:20:01.205Z,5.01
2018-12-21T00:22:30.337Z,5.06
2018-12-21T00:24:59.444Z,5.06
2018-12-21T00:27:28.642Z,5.08
2018-12-21T00:29:57.837Z,4.94
2018-12-21T00:32:32.390Z,5.05
2018-12-21T00:35:06.828Z,5.10
2018-12-21T00:37:41.567Z,5.08
2018-12-21T00:40:16.264Z,5.08
2018-12-21T00:43:01.886Z,5.12
2018-12-21T00:45:37.614Z,5.11
2018-12-21T00:48:06.772Z,5.12
2018-12-21T00:50:36.687Z,5.19
2018-12-21T00:53:05.962Z,5.20
2018-12-21T00:55:35.068Z,5.35
2018-12-21T00:58:04.154Z,5.47
2018-12-21T01:00:33.356Z,5.45
2018-12-21T01:03:03.023Z,5.58
2018-12-21T01:05:32.372Z,5.60
2018-12-21T01:08:01.431Z,5.70
2018-12-21T01:10:30.666Z,5.71
2018-12-21T01:12:59.879Z,5.74
2018-12-21T01:15:29.157Z,5.69
2018-12-21T01:17:58.396Z,5.67
2018-12-21T01:20:27.469Z,5.78
2018-12-21T01:22:56.597Z,5.74
2018-12-21T01:25:25.977Z,5.77
2018-12-21T01:27:55.065Z,5.83
2018-12-21T01:30:24.167Z,5.77
2018-12-21T01:32:53.311Z,5.83
2018-12-21T01:35:22.481Z,5.79
2018-12-21T01:37:51.551Z,6.01
2018-12-21T01:40:20.643Z,5.92
2018-12-21T01:42:49.751Z,6.08
2018-12-21T01:45:18.931Z,5.98
2018-12-21T01:47:48.049Z,6.12
2018-12-21T01:50:17.137Z,6.05
2018-12-21T01:52:46.211Z,6.04
2018-12-21T01:55:15.337Z,6.04
2018-12-21T01:57:44.801Z,5.97
2018-12-21T02:00:14.133Z,6.06
2018-12-21T02:02:43.226Z,6.02
2018-12-21T02:05:12.307Z,5.97
2018-12-21T02:07:41.607Z,5.92
2018-12-21T02:10:10.801Z,5.95
2018-12-21T02:12:40.069Z,6.02
2018-12-21T02:15:09.429Z,5.94
2018-12-21T02:17:39.573Z,5.96
2018-12-21T02:20:08.930Z,6.03
2018-12-21T02:22:38.031Z,6.00
2018-12-21T02:25:07.243Z,5.93
2018-12-21T02:27:36.348Z,5.98
2018-12-21T02:30:06.383Z,6.05
2018-12-21T02:32:35.545Z,6.01
2018-12-21T02:35:05.034Z,6.02
2018-12-21T02:37:34.126Z,6.06
2018-12-21T02:40:03.662Z,5.98
2018-12-21T02:42:32.826Z,5.99
2018-12-21T02:45:02.149Z,6.06
2018-12-21T02:47:31.355Z,6.02
2018-12-21T02:50:00.538Z,6.02
2018-12-21T02:52:29.660Z,5.97
2018-12-21T02:54:58.778Z,5.89
2018-12-21T02:57:27.913Z,5.97
2018-12-21T02:59:57.011Z,5.91
2018-12-21T03:02:26.393Z,5.96
2018-12-21T03:04:55.530Z,5.90
2018-12-21T03:07:24.646Z,5.98
2018-12-21T03:09:53.951Z,5.91
2018-12-21T03:12:23.069Z,5.87
2018-12-21T03:14:52.793Z,5.88
2018-12-21T03:17:22.019Z,5.89
2018-12-21T03:19:51.674Z,5.85
2018-12-21T03:22:21.435Z,5.80
2018-12-21T03:24:50.672Z,5.84
2018-12-21T03:27:21.045Z,5.89
2018-12-21T03:29:50.161Z,5.87
2018-12-21T03:32:19.491Z,6.03
2018-12-21T03:34:48.728Z,6.04
2018-12-21T03:37:18.136Z,5.95
2018-12-21T03:39:47.268Z,6.03
2018-12-21T03:42:16.453Z,6.13
2018-12-21T03:44:45.685Z,6.15
2018-12-21T03:47:14.852Z,6.03
2018-12-21T03:49:44.008Z,5.98
2018-12-21T03:52:13.110Z,6.00
2018-12-21T03:54:42.294Z,5.97
2018-12-21T03:57:11.461Z,5.99
2018-12-21T03:59:40.730Z,5.92
2018-12-21T04:02:09.939Z,5.93
2018-12-21T04:04:39.409Z,5.97
2018-12-21T04:07:08.741Z,5.93
2018-12-21T04:09:38.919Z,5.89
2018-12-21T04:12:08.028Z,5.87
2018-12-21T04:14:37.643Z,5.90
2018-12-21T04:17:06.745Z,5.88
2018-12-21T04:19:36.026Z,5.85
2018-12-21T04:22:05.453Z,5.85
2018-12-21T04:24:34.622Z,5.82
2018-12-21T04:27:03.706Z,5.79
2018-12-21T04:29:32.841Z,5.75
2018-12-21T04:32:02.016Z,5.66
2018-12-21T04:34:31.144Z,5.61
2018-12-21T04:37:00.314Z,5.51
2018-12-21T04:39:29.457Z,5.43
2018-12-21T04:41:58.570Z,5.40
2018-12-21T04:44:27.766Z,5.33
2018-12-21T04:46:56.899Z,5.20
2018-12-21T04:49:25.996Z,5.28
2018-12-21T04:51:55.101Z,5.21
2018-12-21T04:54:24.303Z,5.23
2018-12-21T04:56:53.475Z,5.15
2018-12-21T04:59:22.674Z,5.13
2018-12-21T05:01:52.125Z,5.10
2018-12-21T05:04:21.291Z,5.03
2018-12-21T05:06:50.486Z,5.08
2018-12-21T05:09:19.705Z,5.06
2018-12-21T05:11:48.971Z,5.01
2018-12-21T05:14:18.079Z,4.96
2018-12-21T05:16:47.279Z,4.95
2018-12-21T05:19:16.486Z,4.91
2018-12-21T05:21:45.714Z,4.95
2018-12-21T05:24:14.885Z,4.89
2018-12-21T05:26:44.088Z,4.85
2018-12-21T05:29:13.367Z,4.86
2018-12-21T05:31:42.508Z,4.85
2018-12-21T05:34:11.648Z,4.91
2018-12-21T05:36:40.971Z,4.92
2018-12-21T05:39:10.482Z,4.89
2018-12-21T05:41:39.616Z,4.90
2018-12-21T05:44:08.869Z,4.92
2018-12-21T05:46:37.983Z,4.90
2018-12-21T05:49:07.627Z,4.90
2018-12-21T05:51:36.744Z,4.86
2018-12-21T05:54:06.023Z,4.86
2018-12-21T05:56:35.126Z,4.86
2018-12-21T05:59:04.604Z,4.78
2018-12-21T06:01:34.166Z,4.81
2018-12-21T06:04:03.368Z,4.73
2018-12-21T06:06:32.451Z,4.78
2018-12-21T06:09:01.556Z,4.91
2018-12-21T06:11:30.786Z,4.82
2018-12-21T06:14:01.050Z,4.80
2018-12-21T06:16:30.780Z,4.77
2018-12-21T06:18:59.878Z,4.83
2018-12-21T06:21:29.088Z,4.86
2018-12-21T06:23:58.174Z,4.80
2018-12-21T06:26:27.419Z,4.88
2018-12-21T06:28:56.508Z,4.92
2018-12-21T06:31:25.666Z,4.78
2018-12-21T06:33:54.828Z,4.74
2018-12-21T06:36:24.182Z,4.73
2018-12-21T06:38:53.366Z,4.73
2018-12-21T06:41:22.482Z,4.65
2018-12-21T06:43:51.638Z,4.72
2018-12-21T06:46:20.866Z,4.73
2018-12-21T06:48:50.055Z,4.80
2018-12-21T06:51:19.474Z,4.79
2018-12-21T06:53:48.602Z,4.75
2018-12-21T06:56:17.828Z,4.76
2018-12-21T06:58:47.030Z,4.73
2018-12-21T07:01:16.310Z,4.77
2018-12-21T07:03:45.550Z,4.78
2018-12-21T07:06:14.913Z,4.72
2018-12-21T07:08:44.071Z,4.66
2018-12-21T07:11:13.156Z,4.58
2018-12-21T07:13:42.249Z,4.59
2018-12-21T07:16:11.539Z,4.60
2018-12-21T07:18:40.634Z,4.69
2018-12-21T07:21:09.839Z,4.65
2018-12-21T07:23:39.002Z,4.60
2018-12-21T07:26:08.127Z,4.51
2018-12-21T07:28:37.243Z,4.58
2018-12-21T07:31:06.355Z,4.57
2018-12-21T07:33:35.698Z,4.61
2018-12-21T07:36:08.465Z,4.66
2018-12-21T07:38:36.240Z,4.65
2018-12-21T07:41:05.354Z,4.72
2018-12-21T07:43:34.452Z,4.70
2018-12-21T07:46:03.768Z,4.73
2018-12-21T07:48:33.155Z,4.75
2018-12-21T07:51:02.332Z,4.80
2018-12-21T07:53:35.882Z,4.81
2018-12-21T07:56:02.590Z,4.82
2018-12-21T07:58:31.868Z,4.85
2018-12-21T08:01:00.990Z,4.86
2018-12-21T08:03:30.138Z,4.84
2018-12-21T08:05:59.431Z,4.94
2018-12-21T08:08:28.678Z,3.81
2018-12-21T08:10:57.856Z,4.94
2018-12-21T08:13:27.054Z,4.95
2018-12-21T08:15:56.160Z,5.00
2018-12-21T08:18:25.349Z,5.09
2018-12-21T08:20:54.472Z,5.12
2018-12-21T08:23:23.591Z,5.15
2018-12-21T08:25:52.778Z,5.20
2018-12-21T08:28:21.954Z,5.28
2018-12-21T08:30:51.091Z,5.29
2018-12-21T08:33:20.226Z,5.38
2018-12-21T08:35:49.476Z,5.30
2018-12-21T08:38:18.731Z,5.37
2018-12-21T08:40:47.923Z,5.38
2018-12-21T08:43:17.021Z,5.45
2018-12-21T08:45:46.199Z,5.42
2018-12-21T08:48:15.323Z,5.50
2018-12-21T08:50:44.432Z,5.56
2018-12-21T08:53:13.531Z,5.60
2018-12-21T08:55:42.731Z,5.69
2018-12-21T08:58:11.981Z,5.75
2018-12-21T09:00:41.415Z,5.81
2018-12-21T09:03:10.573Z,5.96
2018-12-21T09:05:40.089Z,5.97
2018-12-21T09:08:09.188Z,6.02
2018-12-21T09:10:38.445Z,6.12
2018-12-21T09:13:07.583Z,6.18
2018-12-21T09:15:36.851Z,6.28
2018-12-21T09:18:06.026Z,6.34
2018-12-21T09:20:35.111Z,6.59
2018-12-21T09:23:04.287Z,6.62
2018-12-21T09:25:33.503Z,6.67
2018-12-21T09:28:02.701Z,6.82
2018-12-21T09:30:31.892Z,6.94
2018-12-21T09:33:00.970Z,6.91
2018-12-21T09:35:30.074Z,6.93
2018-12-21T09:37:59.367Z,6.74
2018-12-21T09:40:28.570Z,6.72
2018-12-21T09:42:57.731Z,6.54
2018-12-21T09:45:26.838Z,6.22
2018-12-21T09:47:55.935Z,6.01
2018-12-21T09:50:25.303Z,5.70
2018-12-21T09:52:54.523Z,5.66
2018-12-21T09:55:23.767Z,5.54
2018-12-21T09:57:52.859Z,5.57
2018-12-21T10:00:22.152Z,5.55
2018-12-21T10:02:51.291Z,5.59
2018-12-21T10:05:20.399Z,5.58
2018-12-21T10:07:56.169Z,5.47
2018-12-21T10:10:25.346Z,5.41
2018-12-21T10:12:54.817Z,5.43
2018-12-21T10:15:24.175Z,5.43
2018-12-21T10:17:53.720Z,5.41
2018-12-21T10:20:22.904Z,5.47
2018-12-21T10:22:52.067Z,5.45
2018-12-21T10:25:21.146Z,5.40
2018-12-21T10:27:51.502Z,5.45
2018-12-21T10:30:20.772Z,5.40
2018-12-21T10:32:49.893Z,5.61
2018-12-21T10:35:18.999Z,5.49
2018-12-21T10:37:48.127Z,5.48
2018-12-21T10:40:17.307Z,5.53
2018-12-21T10:42:46.384Z,5.54
2018-12-21T10:45:15.671Z,5.54
2018-12-21T10:47:44.955Z,5.58
2018-12-21T10:50:14.300Z,5.67
2018-12-21T10:52:43.382Z,5.67
2018-12-21T10:55:12.737Z,5.63
2018-12-21T10:57:41.826Z,5.62
2018-12-21T11:00:12.532Z,5.69
2018-12-21T11:02:41.643Z,5.65
2018-12-21T11:05:10.911Z,5.66
2018-12-21T11:07:40.163Z,5.67
2018-12-21T11:10:11.317Z,5.71
2018-12-21T11:12:40.526Z,5.70
2018-12-21T11:15:10.010Z,5.65
2018-12-21T11:17:39.128Z,5.65
2018-12-21T11:20:08.824Z,5.67
2018-12-21T11:22:37.979Z,5.67
2018-12-21T11:25:09.506Z,5.66
2018-12-21T11:27:38.603Z,5.61
2018-12-21T11:30:08.768Z,5.65
2018-12-21T11:32:38.083Z,5.61
2018-12-21T11:35:07.296Z,5.57
2018-12-21T11:37:36.422Z,5.57
2018-12-21T11:40:05.699Z,5.62
2018-12-21T11:42:34.851Z,5.51
2018-12-21T11:45:04.324Z,5.44
2018-12-21T11:47:33.453Z,5.43
2018-12-21T11:50:02.710Z,5.36
2018-12-21T11:52:31.788Z,5.36
2018-12-21T11:55:00.878Z,5.37
2018-12-21T11:57:29.991Z,5.34
2018-12-21T11:59:59.060Z,5.37
2018-12-21T12:02:28.168Z,5.30
2018-12-21T12:04:57.436Z,5.21
2018-12-21T12:07:26.516Z,5.22
2018-12-21T12:09:55.646Z,5.23
2018-12-21T12:12:24.953Z,5.17
2018-12-21T12:14:54.058Z,5.32
2018-12-21T12:17:23.182Z,5.25
2018-12-21T12:19:52.308Z,5.34
2018-12-21T12:22:21.908Z,5.30
2018-12-21T12:24:52.936Z,5.34
2018-12-21T12:27:22.078Z,5.40
2018-12-21T12:29:51.254Z,5.54
2018-12-21T12:32:20.352Z,5.54
2018-12-21T12:34:49.474Z,5.49
2018-12-21T12:37:18.610Z,5.52
2018-12-21T12:39:47.782Z,5.60
2018-12-21T12:42:17.038Z,5.60
2018-12-21T12:44:46.134Z,5.61
2018-12-21T12:47:15.595Z,5.69
2018-12-21T12:49:44.830Z,5.69
2018-12-21T12:52:14.010Z,5.64
2018-12-21T12:54:43.101Z,5.70
2018-12-21T12:57:12.625Z,5.73
2018-12-21T12:59:42.072Z,5.79
2018-12-21T13:02:11.184Z,5.87
2018-12-21T13:04:40.262Z,5.88
2018-12-21T13:07:09.330Z,5.98
2018-12-21T13:09:38.437Z,6.03
2018-12-21T13:12:07.647Z,6.16
2018-12-21T13:14:36.764Z,6.27
2018-12-21T13:17:06.066Z,6.43
2018-12-21T13:19:35.210Z,6.51
2018-12-21T13:22:04.556Z,6.66
2018-12-21T13:24:34.180Z,6.81
2018-12-21T13:27:03.470Z,6.88
2018-12-21T13:29:32.562Z,7.15
2018-12-21T13:32:01.656Z,7.29
2018-12-21T13:34:30.749Z,7.53
2018-12-21T13:36:59.934Z,7.76
2018-12-21T13:39:29.121Z,7.75
2018-12-21T13:41:58.197Z,7.86
2018-12-21T13:44:27.285Z,8.03
2018-12-21T13:46:56.489Z,8.08
2018-12-21T13:49:25.567Z,8.18
2018-12-21T13:51:54.755Z,8.28
2018-12-21T13:54:24.183Z,8.22
2018-12-21T13:56:53.480Z,8.26
2018-12-21T13:59:22.643Z,8.32
2018-12-21T14:01:51.833Z,8.38
2018-12-21T14:04:20.960Z,8.42
2018-12-21T14:06:50.075Z,8.32
2018-12-21T14:09:19.167Z,8.43
2018-12-21T14:11:48.291Z,8.70
2018-12-21T14:14:17.362Z,8.53
2018-12-21T14:16:46.468Z,8.66
2018-12-21T14:19:15.575Z,8.62
2018-12-21T14:21:44.671Z,8.68
2018-12-21T14:24:13.786Z,8.51
2018-12-21T14:26:42.966Z,8.39
2018-12-21T14:29:12.058Z,8.49
2018-12-21T14:31:41.187Z,8.61
2018-12-21T14:34:10.429Z,8.60
2018-12-21T14:36:39.652Z,8.77
2018-12-21T14:39:08.850Z,8.75
2018-12-21T14:41:37.931Z,8.73
2018-12-21T14:44:07.142Z,8.69
2018-12-21T14:46:36.230Z,8.82
2018-12-21T14:49:05.314Z,8.80
2018-12-21T14:51:34.436Z,8.85
2018-12-21T14:54:03.507Z,8.74
2018-12-21T14:56:32.606Z,8.62
2018-12-21T14:59:01.715Z,8.66
2018-12-21T15:01:31.142Z,8.72
2018-12-21T15:04:00.354Z,8.78
2018-12-21T15:06:29.637Z,8.67
2018-12-21T15:08:58.808Z,8.76
2018-12-21T15:11:27.910Z,8.85
2018-12-21T15:13:56.994Z,8.72
2018-12-21T15:16:26.103Z,8.77
2018-12-21T15:18:55.295Z,8.75
2018-12-21T15:21:24.597Z,8.79
2018-12-21T15:23:53.780Z,8.72
2018-12-21T15:26:22.919Z,8.87
2018-12-21T15:28:52.005Z,8.95
2018-12-21T15:31:21.119Z,8.97
2018-12-21T15:33:50.222Z,9.03
2018-12-21T15:36:19.285Z,8.96
2018-12-21T15:38:48.396Z,8.97
2018-12-21T15:41:17.475Z,9.03
2018-12-21T15:43:53.095Z,9.09
2018-12-21T15:46:22.194Z,9.10
2018-12-21T15:48:51.294Z,8.98
2018-12-21T15:51:20.522Z,8.96
2018-12-21T15:53:49.694Z,8.98
2018-12-21T15:56:18.802Z,8.94
2018-12-21T15:58:48.017Z,8.98
2018-12-21T16:01:17.316Z,9.07
2018-12-21T16:03:46.406Z,9.07
2018-12-21T16:06:15.515Z,9.10
2018-12-21T16:08:44.602Z,9.27
2018-12-21T16:11:13.702Z,9.26
2018-12-21T16:13:42.878Z,9.43
2018-12-21T16:16:12.277Z,9.57
2018-12-21T16:18:41.493Z,9.55
2018-12-21T16:21:10.674Z,9.49
2018-12-21T16:23:39.966Z,9.63
2018-12-21T16:26:09.079Z,9.61
2018-12-21T16:28:38.299Z,9.67
2018-12-21T16:31:07.473Z,9.59
2018-12-21T16:33:36.587Z,9.60
2018-12-21T16:36:05.732Z,9.70
2018-12-21T16:38:34.979Z,9.80
2018-12-21T16:41:04.267Z,9.83
2018-12-21T16:43:33.915Z,9.86
2018-12-21T16:46:03.094Z,9.62
2018-12-21T16:48:32.397Z,9.82
2018-12-21T16:51:01.555Z,9.71
2018-12-21T16:53:30.643Z,9.85
2018-12-21T16:55:59.785Z,9.70
2018-12-21T16:58:29.156Z,9.73
2018-12-21T17:00:58.515Z,9.72
2018-12-21T17:03:27.708Z,9.83
2018-12-21T17:05:56.863Z,9.96
2018-12-21T17:08:25.963Z,9.91
2018-12-21T17:10:55.167Z,10.00
2018-12-21T17:13:24.354Z,9.96
2018-12-21T17:15:53.484Z,9.98
2018-12-21T17:18:24.674Z,10.06
2018-12-21T17:20:53.906Z,10.00
2018-12-21T17:23:23.111Z,10.04
2018-12-21T17:25:52.343Z,10.06
2018-12-21T17:28:21.492Z,10.02
2018-12-21T17:30:50.571Z,10.11
2018-12-21T17:33:19.681Z,10.07
2018-12-21T17:35:48.794Z,10.12
2018-12-21T17:38:17.942Z,9.98
2018-12-21T17:40:47.240Z,10.22
2018-12-21T17:43:16.318Z,10.10
2018-12-21T17:45:45.452Z,10.05
2018-12-21T17:48:14.544Z,10.14
2018-12-21T17:50:43.642Z,10.16
2018-12-21T17:53:12.752Z,10.20
2018-12-21T17:55:41.914Z,10.10
2018-12-21T17:58:11.008Z,10.15
2018-12-21T18:00:40.234Z,10.09
2018-12-21T18:03:14.676Z,10.13
2018-12-21T18:05:43.775Z,10.28
2018-12-21T18:08:12.882Z,10.11
2018-12-21T18:10:42.010Z,10.13
2018-12-21T18:13:11.110Z,10.05
2018-12-21T18:15:40.332Z,10.25
2018-12-21T18:18:09.499Z,10.23
2018-12-21T18:20:38.770Z,10.19
2018-12-21T18:23:09.542Z,10.14
2018-12-21T18:25:38.722Z,10.23
2018-12-21T18:28:11.127Z,10.28
2018-12-21T18:30:45.642Z,10.30
2018-12-21T18:33:16.375Z,10.20
2018-12-21T18:35:45.637Z,10.21
2018-12-21T18:38:18.859Z,10.29
2018-12-21T18:40:48.066Z,10.24
2018-12-21T18:43:17.274Z,10.33
2018-12-21T18:45:46.378Z,10.27
2018-12-21T18:48:15.472Z,10.27
2018-12-21T18:50:44.781Z,10.29
2018-12-21T18:53:14.174Z,10.28
2018-12-21T18:55:44.570Z,10.29
2018-12-21T18:58:13.807Z,10.39
2018-12-21T19:00:43.103Z,10.31
2018-12-21T19:03:12.191Z,10.23
2018-12-21T19:05:41.402Z,10.41
2018-12-21T19:08:10.702Z,10.34
2018-12-21T19:10:39.967Z,10.36
2018-12-21T19:13:09.078Z,10.46
2018-12-21T19:15:38.422Z,10.39
2018-12-21T19:18:08.170Z,10.25
2018-12-21T19:20:37.475Z,10.22
2018-12-21T19:23:06.672Z,10.17
2018-12-21T19:25:36.029Z,10.30
2018-12-21T19:28:05.260Z,10.34
2018-12-21T19:30:34.596Z,10.31
2018-12-21T19:33:03.717Z,10.25
2018-12-21T19:35:33.003Z,10.03
2018-12-21T19:38:02.215Z,10.20
2018-12-21T19:40:31.348Z,10.29
2018-12-21T19:43:00.566Z,10.23
2018-12-21T19:45:29.681Z,10.20
2018-12-21T19:47:58.876Z,10.19
2018-12-21T19:50:28.077Z,10.18
2018-12-21T19:52:57.201Z,10.10
2018-12-21T19:55:49.807Z,10.10
2018-12-21T19:58:18.922Z,10.06
2018-12-21T20:00:48.029Z,10.15
2018-12-21T20:03:17.130Z,10.27
2018-12-21T20:05:46.319Z,10.25
2018-12-21T20:08:15.651Z,10.19
2018-12-21T20:10:44.742Z,10.19
2018-12-21T20:13:14.213Z,10.11
2018-12-21T20:15:43.318Z,10.20
2018-12-21T20:18:12.462Z,10.30
2018-12-21T20:20:41.587Z,10.27
2018-12-21T20:23:10.782Z,10.14
2018-12-21T20:25:41.011Z,10.26
2018-12-21T20:28:10.122Z,10.19
2018-12-21T20:30:39.249Z,10.36
2018-12-21T20:33:08.558Z,10.22
2018-12-21T20:35:37.764Z,10.31
2018-12-21T20:38:06.878Z,10.14
2018-12-21T20:40:36.139Z,10.29
2018-12-21T20:43:06.107Z,10.25
2018-12-21T20:45:35.225Z,10.22
2018-12-21T20:48:04.431Z,10.37
2018-12-21T20:50:33.565Z,10.31
2018-12-21T20:53:02.684Z,10.35
2018-12-21T20:55:31.906Z,10.35
2018-12-21T20:58:07.439Z,10.33
2018-12-21T21:00:36.547Z,10.33
2018-12-21T21:03:05.669Z,10.34
2018-12-21T21:05:34.787Z,10.44
2018-12-21T21:08:03.993Z,10.49
2018-12-21T21:10:33.102Z,10.39
2018-12-21T21:13:02.192Z,10.50
2018-12-21T21:15:31.310Z,10.42
2018-12-21T21:18:00.556Z,10.48
2018-12-21T21:20:29.722Z,10.48
2018-12-21T21:22:58.830Z,10.55
2018-12-21T21:25:27.938Z,10.28
2018-12-21T21:27:57.068Z,10.53
2018-12-21T21:30:27.425Z,10.54
2018-12-21T21:32:56.535Z,10.52
2018-12-21T21:35:25.652Z,10.57
2018-12-21T21:37:54.786Z,10.58
2018-12-21T21:40:23.931Z,10.63
2018-12-21T21:42:57.679Z,11.07
2018-12-21T21:45:27.058Z,10.80
2018-12-21T21:47:56.468Z,10.75
2018-12-21T21:50:26.518Z,10.54
2018-12-21T21:52:55.699Z,10.63
2018-12-21T21:55:24.796Z,10.57
2018-12-21T21:57:53.904Z,10.57
2018-12-21T22:00:23.039Z,10.59
2018-12-21T22:02:52.252Z,10.55
2018-12-21T22:05:30.229Z,10.52
2018-12-21T22:07:59.407Z,10.52
2018-12-21T22:10:28.532Z,10.54
2018-12-21T22:12:57.758Z,10.67
2018-12-21T22:15:26.930Z,10.62
2018-12-21T22:17:56.070Z,10.65
2018-12-21T22:20:25.410Z,10.61
2018-12-21T22:22:54.604Z,10.61
2018-12-21T22:25:23.753Z,10.69
2018-12-21T22:27:53.169Z,10.76
2018-12-21T22:30:22.272Z,10.65
2018-12-21T22:32:51.461Z,10.67
2018-12-21T22:35:20.743Z,10.61
2018-12-21T22:37:49.902Z,10.74
2018-12-21T22:40:19.065Z,10.88
2018-12-21T22:42:48.309Z,10.72
2018-12-21T22:45:17.419Z,10.72
2018-12-21T22:47:46.760Z,10.76
2018-12-21T22:50:16.018Z,10.77
2018-12-21T22:52:45.329Z,10.76
2018-12-21T22:55:14.500Z,10.69
2018-12-21T22:57:43.644Z,10.72
2018-12-21T23:00:20.693Z,10.69
2018-12-21T23:02:50.140Z,10.78
2018-12-21T23:05:19.402Z,10.68
2018-12-21T23:07:48.501Z,10.70
2018-12-21T23:10:17.705Z,10.75
2018-12-21T23:12:46.793Z,10.72
2018-12-21T23:15:15.879Z,10.76
2018-12-21T23:17:44.985Z,10.71
2018-12-21T23:20:20.953Z,10.81
2018-12-21T23:22:50.072Z,10.68
2018-12-21T23:25:19.288Z,10.63
2018-12-21T23:27:48.489Z,10.63
2018-12-21T23:30:17.587Z,10.64
2018-12-21T23:32:46.872Z,10.57
2018-12-21T23:35:16.050Z,10.62
2018-12-21T23:37:45.155Z,10.63
2018-12-21T23:40:15.450Z,10.57
2018-12-21T23:42:44.741Z,10.88
2018-12-21T23:45:13.847Z,10.84
2018-12-21T23:47:43.064Z,10.67
2018-12-21T23:50:12.288Z,10.65
2018-12-21T23:52:41.430Z,10.58
2018-12-21T23:55:10.559Z,10.53
2018-12-21T23:57:39.746Z,10.51
